Melbourne International Airport
YMML : now visible

Aeroporto :











RITROVATECI SU...

 
LOGIN :

Iscrizione | Disclaimer

   EN    FR    IT 

 









Sommario :    VFR   VFR Marginale   IFR   IFR Intensivo   IFR Molto Intensivo
Visibilità : 
Base nubi : 
>= 8 km
>= 3000ft
5 / 8 km
1000 / 3000 ft
1500m / 5 km
500 / 1000 ft
800 / 1500m
200 / 500 ft
< 800m
< 200 ft
Simboli :   Temporali  Nebbia  Neve Forte  Precipitazioni Forti  Vento > 20 kt







- Altitudine del aeroporto : 434 ft
- Codice IATA : MEL


YMML - Melbourne International

ULTIMO METAR :
  • 230400Z 34020KT CAVOK 30/12 Q1005 FM0600 35014KT 9999 FEW045

METARs OBSOLETI :
  • 230330Z 35023KT CAVOK 30/12 Q1005 FM0600 35014KT 9999 FEW045
  • 230306Z 35022G32KT CAVOK 29/12 Q1005
  • 230300Z 35022KT CAVOK 29/12 Q1005
  • 230230Z 36022KT CAVOK 29/12 Q1006 FM0230 MOD TURB BLW 5000FT TILL 0300
  • 230200Z 36021KT CAVOK 28/12 Q1006
  • 230130Z 01016KT CAVOK 27/13 Q1006 FM0130 MOD TURB BLW 5000FT TILL 0300

TAF TAF YMML
Valido dal 23 a 00 ore il 24 a 06 ore UTC


222315Z 2300/2406 01018G28KT 9999 -SHRA NSC
FM230200 36018G28KT CAVOK
FM230600 35014KT 9999 FEW045
BECMG 2308/2309 18008KT 9999 -SHRA FEW012 BKN030
FM231500 VRB03KT 9999 FEW018 SCT030
FM232000 36007KT 9999 FEW025
FM240300 34018G20KT CAVOK
FIR YMMM / Oceania



MetMap, La meteo Aeronautica in un colpo d'occhio ! - Copyright ORBIFLY Dicembre 2007 - Disclaimer

ORBIFLY MET'MAP TEAM :

Programmazione e sviluppo : Alexandra Zaïnal
Concezione e sviluppo : Baudouin d'Aumeries
Co-Programmazione e sviluppo : Marc-Olivier Méhu
Supporto tecnico e logistico : Manuel Goepfert
Aiuto per la traduzione : Arnaldo La Scala

Contatto : metmap@orbifly.com




FONTI E CREDITI :

   NOAA       Earth
Advisory